Time;durP1;ratioP1;P1;durP2;ratioP2;P2;SDS_P1;SDS_P2;PMS_P1;PMS_P2;Temp;Humidity;BMP_temperature;BMP_pressure;BME280_temperature;BME280_humidity;BME280_pressure;Samples;Min_cycle;Max_cycle;Signal;HPM_P1;HPM_P2
2023/12/24 00:01:49;;;;;;;5.40;2.50;;;;;;;10.31;50.24;97825.06;4955326;29;20054;-80
2023/12/24 00:04:15;;;;;;;3.40;2.10;;;;;;;10.25;50.09;97828.22;4955001;29;20074;-81
2023/12/24 00:06:40;;;;;;;3.13;2.00;;;;;;;10.27;50.22;97822.88;4923871;29;20023;-81
2023/12/24 00:09:06;;;;;;;4.22;1.80;;;;;;;10.15;50.39;97824.78;4939503;29;20088;-81
2023/12/24 00:11:31;;;;;;;3.53;2.08;;;;;;;10.09;50.22;97820.94;4924323;29;20383;-81
2023/12/24 00:13:57;;;;;;;5.25;2.60;;;;;;;10.09;50.24;97817.53;4939849;28;20035;-81
2023/12/24 00:16:22;;;;;;;5.53;2.70;;;;;;;10.13;50.05;97834.53;4939493;29;20031;-81
2023/12/24 00:18:49;;;;;;;4.63;2.80;;;;;;;10.10;49.73;97837.41;4939513;29;20039;-81
2023/12/24 00:21:14;;;;;;;7.50;3.30;;;;;;;10.11;49.54;97850.31;4955008;29;20023;-81
2023/12/24 00:23:39;;;;;;;6.65;3.20;;;;;;;10.04;49.31;97846.63;4955924;29;20031;-81
2023/12/24 00:26:05;;;;;;;4.22;3.13;;;;;;;10.03;49.55;97857.19;4938607;29;20106;-81
2023/12/24 00:28:31;;;;;;;7.60;3.33;;;;;;;10.00;49.18;97873.09;4939373;29;20031;-82
2023/12/24 00:30:57;;;;;;;7.20;3.22;;;;;;;10.02;49.16;97869.38;4922925;29;20150;-82
2023/12/24 00:33:22;;;;;;;7.18;3.28;;;;;;;10.02;49.43;97871.16;4923275;29;20122;-81
2023/12/24 00:35:48;;;;;;;4.93;3.67;;;;;;;9.93;49.45;97862.34;4923292;29;20043;-80
2023/12/24 00:38:13;;;;;;;4.82;3.13;;;;;;;9.93;49.37;97878.84;4923243;29;20035;-80
2023/12/24 00:40:39;;;;;;;4.30;3.00;;;;;;;9.91;49.49;97885.94;4939218;29;20038;-81
2023/12/24 00:43:05;;;;;;;5.72;3.50;;;;;;;9.89;49.73;97887.06;4938711;29;20126;-81
2023/12/24 00:45:31;;;;;;;5.22;3.40;;;;;;;9.77;49.84;97879.34;4940092;29;20487;-81
2023/12/24 00:47:56;;;;;;;6.45;3.97;;;;;;;9.84;49.66;97897.88;4939014;29;20035;-81
2023/12/24 00:50:22;;;;;;;5.72;3.50;;;;;;;9.82;49.51;97891.13;4939327;29;20467;-81
2023/12/24 00:52:48;;;;;;;6.28;3.88;;;;;;;9.78;49.88;97887.97;4923097;29;20039;-81
2023/12/24 00:55:13;;;;;;;5.03;3.58;;;;;;;9.78;49.84;97899.22;4923650;29;20490;-83
2023/12/24 00:57:39;;;;;;;5.28;3.78;;;;;;;9.78;49.94;97896.63;4911644;29;20444;-81
2023/12/24 01:00:05;;;;;;;5.72;3.90;;;;;;;9.76;49.78;97914.19;4935697;29;20039;-81
2023/12/24 01:02:31;;;;;;;6.38;4.07;;;;;;;9.72;49.88;97901.53;4920151;29;20036;-82
2023/12/24 01:04:56;;;;;;;6.63;4.00;;;;;;;9.72;50.18;97897.16;4919448;29;20420;-82
2023/12/24 01:07:22;;;;;;;11.93;3.83;;;;;;;9.71;49.81;97897.28;4922435;29;20067;-81
2023/12/24 01:09:47;;;;;;;6.85;4.32;;;;;;;9.69;49.73;97899.19;4954530;29;20090;-82
2023/12/24 01:12:12;;;;;;;7.45;4.20;;;;;;;9.67;49.95;97895.91;4938286;29;20039;-83
2023/12/24 01:14:38;;;;;;;6.15;3.90;;;;;;;9.64;49.86;97889.16;4938555;29;20074;-81
2023/12/24 01:17:03;;;;;;;5.68;3.70;;;;;;;9.68;49.92;97876.72;4920119;29;20122;-82
2023/12/24 01:19:31;;;;;;;5.15;4.10;;;;;;;9.66;50.21;97884.66;4903533;29;20055;-81
2023/12/24 01:21:56;;;;;;;5.25;3.58;;;;;;;9.67;50.37;97877.66;4954174;29;20110;-82
2023/12/24 01:24:22;;;;;;;5.55;4.10;;;;;;;9.65;50.20;97879.59;4938468;29;20037;-81
2023/12/24 01:26:47;;;;;;;6.35;3.90;;;;;;;9.65;50.36;97885.63;4921604;29;20126;-82
2023/12/24 01:29:13;;;;;;;5.00;3.40;;;;;;;9.64;50.40;97890.97;4938325;29;20054;-81
2023/12/24 01:31:38;;;;;;;4.95;3.45;;;;;;;9.61;50.49;97889.44;4953678;29;20038;-81
2023/12/24 01:34:04;;;;;;;5.07;3.50;;;;;;;9.66;50.53;97895.09;4938349;29;20036;-82
2023/12/24 01:36:29;;;;;;;4.43;3.38;;;;;;;9.70;50.44;97896.47;4954064;29;20077;-83
2023/12/24 01:38:55;;;;;;;4.68;3.00;;;;;;;9.72;50.56;97891.94;4938024;29;20035;-81
2023/12/24 01:41:20;;;;;;;5.40;3.30;;;;;;;9.78;50.44;97890.59;4922052;29;20101;-82
2023/12/24 01:43:47;;;;;;;4.40;3.03;;;;;;;9.83;50.10;97892.81;4937654;29;20470;-82
2023/12/24 01:46:13;;;;;;;4.28;2.50;;;;;;;9.83;50.27;97879.78;4938076;29;20455;-81
2023/12/24 01:48:39;;;;;;;3.40;2.30;;;;;;;9.93;49.80;97891.03;4922011;29;20123;-83
2023/12/24 01:51:05;;;;;;;3.90;2.17;;;;;;;9.90;49.69;97879.09;4954019;29;20410;-80
2023/12/24 01:53:31;;;;;;;3.55;2.30;;;;;;;10.05;49.44;97899.56;4954803;28;20031;-80
2023/12/24 01:55:56;;;;;;;2.45;1.73;;;;;;;10.10;49.31;97892.16;4937714;29;20043;-80
2023/12/24 01:58:22;;;;;;;4.53;1.90;;;;;;;10.17;49.03;97898.50;4921855;29;20043;-80
2023/12/24 02:00:47;;;;;;;3.28;1.75;;;;;;;10.17;49.14;97882.84;4937601;29;20035;-80
2023/12/24 02:03:13;;;;;;;2.88;1.77;;;;;;;10.27;48.95;97907.16;4922089;29;20031;-79
2023/12/24 02:05:40;;;;;;;2.95;1.60;;;;;;;10.34;48.92;97909.25;4922639;29;20134;-80
2023/12/24 02:08:06;;;;;;;2.90;1.67;;;;;;;10.38;48.74;97915.88;4954179;29;20400;-79
2023/12/24 02:10:31;;;;;;;2.35;1.40;;;;;;;10.39;48.75;97925.31;4937855;29;20043;-81
2023/12/24 02:12:57;;;;;;;2.35;1.38;;;;;;;10.29;48.54;97913.09;4921115;29;20035;-80
2023/12/24 02:15:22;;;;;;;1.80;1.17;;;;;;;10.45;48.45;97943.03;4921130;29;20078;-80
2023/12/24 02:17:48;;;;;;;2.08;1.13;;;;;;;10.49;48.45;97945.25;4937800;29;20110;-81
2023/12/24 02:20:13;;;;;;;1.50;0.95;;;;;;;10.50;48.09;97940.88;4953638;29;20031;-80
2023/12/24 02:22:39;;;;;;;4.38;1.20;;;;;;;10.48;48.23;97943.63;4953197;29;20047;-80
2023/12/24 02:25:05;;;;;;;3.47;0.98;;;;;;;10.50;47.80;97936.47;4953903;28;20079;-80
2023/12/24 02:27:37;;;;;;;1.45;0.70;;;;;;;10.52;47.00;97933.72;4925092;28;20126;-79
2023/12/24 02:30:07;;;;;;;0.90;0.60;;;;;;;10.52;47.48;97940.75;4957233;28;20398;-81
2023/12/24 02:32:34;;;;;;;1.42;0.82;;;;;;;10.55;47.42;97933.44;4941123;28;20122;-81
2023/12/24 02:34:59;;;;;;;1.40;0.65;;;;;;;10.60;46.84;97946.91;4957438;28;20105;-81
2023/12/24 02:37:25;;;;;;;1.42;0.70;;;;;;;10.59;47.01;97940.03;4940832;28;20398;-80
2023/12/24 02:39:50;;;;;;;1.63;0.70;;;;;;;10.66;46.85;97954.19;4943960;28;20466;-80
2023/12/24 02:42:16;;;;;;;0.88;0.40;;;;;;;10.70;46.58;97962.56;4943651;28;20046;-80
2023/12/24 02:44:42;;;;;;;1.83;0.73;;;;;;;10.72;46.29;97942.41;4960316;28;20479;-80
2023/12/24 02:47:07;;;;;;;1.77;0.60;;;;;;;10.74;46.39;97960.53;4928213;28;20034;-79
2023/12/24 02:49:33;;;;;;;0.80;0.40;;;;;;;10.77;46.20;97970.66;4977300;28;20082;-80
2023/12/24 02:51:58;;;;;;;0.63;0.50;;;;;;;10.77;45.95;97975.91;4944218;28;20093;-80
2023/12/24 02:54:23;;;;;;;1.25;0.40;;;;;;;10.79;45.30;97979.22;4960226;28;20105;-79
2023/12/24 02:56:49;;;;;;;0.73;0.45;;;;;;;10.76;45.48;97976.88;4944012;28;20035;-79
2023/12/24 02:59:14;;;;;;;0.45;0.40;;;;;;;10.80;43.82;97988.69;4960424;28;20073;-78
2023/12/24 03:01:40;;;;;;;0.75;0.38;;;;;;;10.76;44.92;98002.97;4959795;28;20042;-80
2023/12/24 03:04:06;;;;;;;0.85;0.47;;;;;;;10.79;44.80;97994.88;4944020;28;20066;-81
2023/12/24 03:06:32;;;;;;;0.60;0.30;;;;;;;10.78;44.10;97974.94;4928020;28;20054;-79
2023/12/24 03:08:58;;;;;;;1.15;0.40;;;;;;;10.75;43.96;97999.53;4927710;28;20039;-80
2023/12/24 03:11:24;;;;;;;1.05;0.40;;;;;;;10.81;44.36;98008.59;4943580;28;20034;-80
2023/12/24 03:13:49;;;;;;;1.08;0.30;;;;;;;10.78;44.23;97996.63;4943073;28;20486;-80
2023/12/24 03:16:16;;;;;;;0.30;0.20;;;;;;;10.83;43.98;98009.28;4927354;28;20030;-78
2023/12/24 03:18:42;;;;;;;0.43;0.30;;;;;;;10.82;43.33;98018.09;4943118;28;20097;-79
2023/12/24 03:21:07;;;;;;;0.30;0.20;;;;;;;10.82;44.15;98021.53;4943148;28;20035;-80
2023/12/24 03:23:33;;;;;;;0.50;0.28;;;;;;;10.84;43.64;98016.97;4942580;28;20514;-79
2023/12/24 03:25:58;;;;;;;0.60;0.30;;;;;;;10.80;43.60;98009.56;4958889;28;20062;-79
2023/12/24 03:28:24;;;;;;;0.63;0.40;;;;;;;10.76;43.28;98010.81;4943127;28;20438;-79
2023/12/24 03:30:50;;;;;;;0.50;0.20;;;;;;;10.80;43.44;98007.78;4958521;28;20027;-79
2023/12/24 03:33:15;;;;;;;0.85;0.40;;;;;;;10.72;43.35;98012.03;4926971;28;20033;-79
2023/12/24 03:35:43;;;;;;;0.77;0.20;;;;;;;10.76;43.78;98019.47;4942924;28;20098;-81
2023/12/24 03:38:08;;;;;;;0.73;0.30;;;;;;;10.74;43.27;98021.38;4958995;28;20494;-81
2023/12/24 03:40:34;;;;;;;0.50;0.25;;;;;;;10.71;43.76;98034.72;4958120;28;20053;-80
2023/12/24 03:42:59;;;;;;;0.82;0.20;;;;;;;10.71;43.51;98026.06;4942727;28;20034;-81
2023/12/24 03:45:25;;;;;;;0.40;0.20;;;;;;;10.68;43.92;98021.94;4942542;28;20491;-80
2023/12/24 03:47:50;;;;;;;0.80;0.38;;;;;;;10.68;44.18;98038.41;4958919;28;20031;-79
2023/12/24 03:50:16;;;;;;;1.08;0.57;;;;;;;10.71;43.94;98046.94;4941901;28;20031;-90
2023/12/24 03:52:41;;;;;;;1.20;0.40;;;;;;;10.69;44.05;98047.06;4926739;28;20066;-79
2023/12/24 03:55:08;;;;;;;0.30;0.20;;;;;;;10.70;44.22;98047.91;4958710;28;20487;-85
2023/12/24 03:57:33;;;;;;;1.17;0.38;;;;;;;10.69;43.92;98036.63;4942248;28;20042;-81
2023/12/24 03:59:59;;;;;;;0.80;0.50;;;;;;;10.68;43.86;98046.22;4926297;28;20569;-82
2023/12/24 04:02:24;;;;;;;1.50;0.50;;;;;;;10.66;43.69;98040.34;4926375;28;20038;-81
2023/12/24 04:04:50;;;;;;;0.60;0.50;;;;;;;10.65;43.86;98038.66;4942512;28;20041;-81
2023/12/24 04:07:16;;;;;;;0.90;0.52;;;;;;;10.63;43.81;98027.53;4941919;28;20061;-81
2023/12/24 04:09:42;;;;;;;1.50;0.50;;;;;;;10.60;44.03;98050.50;4941626;28;20125;-80
2023/12/24 04:12:08;;;;;;;1.17;0.40;;;;;;;10.62;44.11;98048.56;4942086;28;20039;-81
2023/12/24 04:14:37;;;;;;;1.00;0.40;;;;;;;10.63;43.41;98050.22;4942301;28;20509;-81
2023/12/24 04:17:03;;;;;;;1.20;0.50;;;;;;;10.57;43.79;98042.94;4942217;28;20513;-81
2023/12/24 04:19:28;;;;;;;0.90;0.50;;;;;;;10.57;43.48;98046.34;4941929;28;20113;-81
2023/12/24 04:21:54;;;;;;;1.73;0.60;;;;;;;10.63;43.63;98055.44;4941956;28;20031;-81
2023/12/24 04:24:19;;;;;;;0.70;0.30;;;;;;;10.59;43.74;98046.22;4941636;28;20045;-81
2023/12/24 04:26:45;;;;;;;1.08;0.50;;;;;;;10.63;43.40;98063.28;4925757;28;20055;-80
2023/12/24 04:29:11;;;;;;;2.28;0.60;;;;;;;10.55;43.19;98068.31;4941930;28;20081;-82
2023/12/24 04:31:39;;;;;;;1.08;0.40;;;;;;;10.47;43.68;98069.00;4925968;28;20038;-81
2023/12/24 04:34:08;;;;;;;;;;;;;;;10.53;43.12;98075.44;4956717;28;20034;-81
2023/12/24 04:36:34;;;;;;;1.13;0.50;;;;;;;10.41;43.24;98080.78;4957586;28;19917;-81
2023/12/24 04:38:59;;;;;;;0.77;0.40;;;;;;;10.43;43.62;98091.09;4926069;28;20045;-83
2023/12/24 04:41:28;;;;;;;1.05;0.40;;;;;;;10.44;42.99;98092.75;4931792;28;20407;-81
2023/12/24 04:43:53;;;;;;;;;;;;;;;10.44;43.63;98105.78;4916630;28;20046;-80
2023/12/24 04:46:19;;;;;;;1.33;0.52;;;;;;;10.43;43.54;98106.75;4947139;28;19997;-81
2023/12/24 04:48:44;;;;;;;0.47;0.32;;;;;;;10.45;43.67;98100.44;4929751;29;20027;-81
2023/12/24 04:51:10;;;;;;;0.60;0.40;;;;;;;10.48;43.33;98108.00;4938552;29;20031;-83
2023/12/24 04:53:36;;;;;;;0.77;0.40;;;;;;;10.45;43.46;98100.44;4906707;29;20479;-82
2023/12/24 04:56:01;;;;;;;0.55;0.30;;;;;;;10.50;42.58;98126.16;4906638;29;20035;-82
2023/12/24 04:58:27;;;;;;;0.73;0.43;;;;;;;10.47;43.07;98119.41;4906763;29;20027;-83
2023/12/24 05:00:52;;;;;;;1.45;0.60;;;;;;;10.52;42.76;98142.50;4921877;29;20031;-83
2023/12/24 05:03:18;;;;;;;0.90;0.40;;;;;;;10.47;42.72;98134.22;4921756;29;20047;-83
2023/12/24 05:05:43;;;;;;;0.80;0.40;;;;;;;10.52;42.33;98158.16;4912757;28;20414;-82
2023/12/24 05:08:09;;;;;;;0.75;0.40;;;;;;;10.57;42.82;98161.19;4925245;28;20038;-82
2023/12/24 05:10:35;;;;;;;1.02;0.60;;;;;;;10.63;42.39;98173.72;4957260;28;20027;-82
2023/12/24 05:13:00;;;;;;;1.38;1.02;;;;;;;10.65;42.39;98176.19;4925188;28;20057;-82
2023/12/24 05:15:26;;;;;;;1.50;0.90;;;;;;;10.65;41.79;98181.41;4956788;28;20046;-81
2023/12/24 05:17:51;;;;;;;1.33;0.90;;;;;;;10.64;42.08;98187.56;4941438;28;20124;-82
2023/12/24 05:20:17;;;;;;;2.13;0.80;;;;;;;10.63;42.17;98188.56;4941384;28;20154;-81
2023/12/24 05:22:43;;;;;;;0.80;0.57;;;;;;;10.68;42.35;98184.56;4956806;28;20034;-80
2023/12/24 05:25:09;;;;;;;0.93;0.50;;;;;;;10.68;42.17;98192.41;4939824;28;20090;-82
2023/12/24 05:27:34;;;;;;;1.08;0.50;;;;;;;10.71;41.84;98193.94;4941989;28;20054;-80
2023/12/24 05:30:00;;;;;;;0.55;0.40;;;;;;;10.69;42.27;98190.66;4927906;28;20121;-80
2023/12/24 05:32:25;;;;;;;0.65;0.50;;;;;;;10.70;42.21;98187.06;4939282;28;20035;-81
2023/12/24 05:34:51;;;;;;;1.35;0.60;;;;;;;10.74;42.28;98195.47;4940259;28;20031;-81
2023/12/24 05:37:16;;;;;;;1.10;0.50;;;;;;;10.77;42.24;98200.41;4924640;28;20070;-81
2023/12/24 05:39:42;;;;;;;0.40;0.30;;;;;;;10.79;42.07;98203.72;4940604;28;20039;-82
2023/12/24 05:42:08;;;;;;;0.65;0.40;;;;;;;10.81;42.09;98204.41;4936881;29;20488;-76
2023/12/24 05:44:34;;;;;;;1.02;0.60;;;;;;;10.83;41.96;98207.72;4905844;29;20069;-84
2023/12/24 05:46:59;;;;;;;1.35;0.60;;;;;;;10.82;41.78;98211.31;4956509;28;20046;-85
2023/12/24 05:49:25;;;;;;;1.33;0.50;;;;;;;10.93;41.93;98215.59;4940646;28;20066;-85
2023/12/24 05:51:50;;;;;;;0.90;0.50;;;;;;;10.99;41.86;98217.66;4925283;28;20027;-88
2023/12/24 05:54:16;;;;;;;1.10;0.70;;;;;;;11.13;41.58;98224.31;4956707;28;20134;-78
2023/12/24 05:56:41;;;;;;;2.30;0.75;;;;;;;11.46;41.10;98230.16;4940310;28;20030;-84
2023/12/24 05:59:08;;;;;;;1.02;0.50;;;;;;;12.00;40.36;98228.03;4925410;28;20050;-87
2023/12/24 06:01:33;;;;;;;2.28;0.80;;;;;;;12.87;58.99;98232.25;4957872;28;20099;-76
2023/12/24 06:03:59;;;;;;;4.60;1.20;;;;;;;14.00;58.84;98242.50;4940133;28;20076;-86
2023/12/24 06:06:24;;;;;;;12.32;1.00;;;;;;;14.77;56.64;98234.84;4964128;28;20403;-80
2023/12/24 06:08:50;;;;;;;6.10;1.05;;;;;;;14.99;57.85;98236.94;4926315;28;20046;-79
2023/12/24 06:11:16;;;;;;;10.10;1.00;;;;;;;14.95;58.22;98232.97;4939750;28;20050;-80
2023/12/24 06:13:42;;;;;;;7.25;0.82;;;;;;;15.16;57.68;98224.72;4943606;28;20034;-78
2023/12/24 06:16:07;;;;;;;16.67;0.95;;;;;;;16.61;47.83;98225.16;4959887;28;20038;-76
2023/12/24 06:18:33;;;;;;;41.03;1.48;;;;;;;17.81;49.36;98233.88;4928184;28;20027;-76
2023/12/24 06:20:58;;;;;;;49.08;2.05;;;;;;;18.62;47.30;98237.66;4944315;28;20038;-81
2023/12/24 06:23:24;;;;;;;16.83;1.40;;;;;;;18.92;46.70;98240.34;4964186;28;20462;-78
2023/12/24 06:25:49;;;;;;;23.15;2.35;;;;;;;20.05;44.20;98243.50;4959967;28;20051;-75
2023/12/24 06:28:15;;;;;;;17.67;1.77;;;;;;;20.97;40.54;98246.22;4959480;28;20053;-74
2023/12/24 06:30:40;;;;;;;14.43;1.65;;;;;;;21.79;38.62;98244.53;4961074;28;20081;-86
2023/12/24 06:33:06;;;;;;;21.08;1.80;;;;;;;22.55;35.36;98235.38;4951907;29;20042;-72
2023/12/24 06:35:31;;;;;;;8.25;1.38;;;;;;;23.43;33.01;98233.28;4924342;28;20030;-73
2023/12/24 06:37:57;;;;;;;13.75;1.48;;;;;;;23.42;34.12;98255.63;4958841;28;20042;-79
2023/12/24 06:40:23;;;;;;;6.82;1.70;;;;;;;22.90;35.31;98248.41;4942360;28;20471;-77
2023/12/24 06:42:48;;;;;;;18.80;1.40;;;;;;;24.72;31.61;98265.06;4974830;28;20046;-79
2023/12/24 06:45:14;;;;;;;9.48;1.23;;;;;;;23.71;31.46;98256.13;4941329;28;20117;-80
2023/12/24 06:47:39;;;;;;;6.22;1.23;;;;;;;22.58;32.35;98264.22;4943295;28;20415;-74
